createdAt,value
2018-03-11T00:00:50.491Z,18.36
2018-03-11T00:01:50.625Z,18.43
2018-03-11T00:02:50.481Z,18.44
2018-03-11T00:03:50.481Z,18.37
2018-03-11T00:04:50.672Z,18.4
2018-03-11T00:05:50.487Z,18.43
2018-03-11T00:06:50.682Z,18.37
2018-03-11T00:07:51.417Z,18.39
2018-03-11T00:08:51.494Z,18.41
2018-03-11T00:09:50.923Z,18.39
2018-03-11T00:10:50.834Z,18.39
2018-03-11T00:11:50.531Z,18.43
2018-03-11T00:12:50.658Z,18.33
2018-03-11T00:13:50.471Z,18.37
2018-03-11T00:14:50.494Z,18.4
2018-03-11T00:15:50.474Z,18.33
2018-03-11T00:16:50.500Z,18.37
2018-03-11T00:17:50.466Z,18.4
2018-03-11T00:18:50.484Z,18.32
2018-03-11T00:19:50.463Z,18.37
2018-03-11T00:20:50.497Z,18.37
2018-03-11T00:21:50.473Z,18.32
2018-03-11T00:22:50.458Z,18.36
2018-03-11T00:23:50.477Z,18.39
2018-03-11T00:24:50.466Z,18.3
2018-03-11T00:25:50.505Z,18.32
2018-03-11T00:26:50.471Z,18.37
2018-03-11T00:27:50.509Z,18.32
2018-03-11T00:28:50.499Z,18.32
2018-03-11T00:29:50.488Z,18.36
2018-03-11T00:30:50.466Z,18.29
2018-03-11T00:31:50.465Z,18.33
2018-03-11T00:32:50.465Z,18.37
2018-03-11T00:33:50.461Z,18.3
2018-03-11T00:34:50.491Z,18.32
2018-03-11T00:35:50.475Z,18.33
2018-03-11T00:36:50.485Z,18.28
2018-03-11T00:37:50.478Z,18.3
2018-03-11T00:38:50.467Z,18.33
2018-03-11T00:39:50.492Z,18.26
2018-03-11T00:40:50.463Z,18.3
2018-03-11T00:41:50.501Z,18.32
2018-03-11T00:42:50.464Z,18.26
2018-03-11T00:43:50.780Z,18.29
2018-03-11T00:44:50.462Z,18.33
2018-03-11T00:45:50.468Z,18.23
2018-03-11T00:46:50.474Z,18.29
2018-03-11T00:47:50.457Z,18.32
2018-03-11T00:48:50.464Z,18.23
2018-03-11T00:49:50.458Z,18.29
2018-03-11T00:50:50.457Z,18.3
2018-03-11T00:51:50.448Z,18.23
2018-03-11T00:52:50.468Z,18.26
2018-03-11T00:53:50.451Z,18.29
2018-03-11T00:54:50.524Z,18.23
2018-03-11T00:55:50.454Z,18.25
2018-03-11T00:56:50.469Z,18.29
2018-03-11T00:57:50.458Z,18.19
2018-03-11T00:58:50.458Z,18.25
2018-03-11T00:59:50.469Z,18.28
2018-03-11T01:00:50.506Z,18.21
2018-03-11T01:01:50.455Z,18.23
2018-03-11T01:02:50.456Z,18.28
2018-03-11T01:03:50.458Z,18.19
2018-03-11T01:04:50.487Z,18.23
2018-03-11T01:05:50.477Z,18.26
2018-03-11T01:06:50.461Z,18.16
2018-03-11T01:07:50.444Z,18.23
2018-03-11T01:08:50.461Z,18.23
2018-03-11T01:09:50.498Z,18.16
2018-03-11T01:10:50.455Z,18.18
2018-03-11T01:11:50.451Z,18.25
2018-03-11T01:12:50.454Z,18.16
2018-03-11T01:13:50.454Z,18.19
2018-03-11T01:14:50.480Z,18.22
2018-03-11T01:15:50.466Z,18.15
2018-03-11T01:16:50.470Z,18.19
2018-03-11T01:17:50.453Z,18.26
2018-03-11T01:18:50.448Z,18.18
2018-03-11T01:19:50.448Z,18.16
2018-03-11T01:20:50.508Z,18.21
2018-03-11T01:21:50.449Z,18.12
2018-03-11T01:22:50.434Z,18.18
2018-03-11T01:23:50.446Z,18.22
2018-03-11T01:24:50.471Z,18.12
2018-03-11T01:25:50.583Z,18.16
2018-03-11T01:26:50.461Z,18.19
2018-03-11T01:27:50.438Z,18.12
2018-03-11T01:28:50.469Z,18.18
2018-03-11T01:29:50.420Z,18.19
2018-03-11T01:30:50.476Z,18.09
2018-03-11T01:31:50.437Z,18.15
2018-03-11T01:32:50.473Z,18.19
2018-03-11T01:33:50.460Z,18.09
2018-03-11T01:34:50.552Z,18.15
2018-03-11T01:35:50.571Z,18.21
2018-03-11T01:36:50.466Z,18.11
2018-03-11T01:37:50.447Z,18.13
2018-03-11T01:38:50.439Z,18.15
2018-03-11T01:39:50.454Z,18.09
2018-03-11T01:40:50.479Z,18.12
2018-03-11T01:41:50.481Z,18.18
2018-03-11T01:42:50.441Z,18.08
2018-03-11T01:43:50.431Z,18.11
2018-03-11T01:44:50.440Z,18.15
2018-03-11T01:45:50.474Z,18.07
2018-03-11T01:46:50.451Z,18.09
2018-03-11T01:47:50.452Z,18.13
2018-03-11T01:48:50.437Z,18.05
2018-03-11T01:49:50.423Z,18.08
2018-03-11T01:50:50.706Z,18.12
2018-03-11T01:51:50.442Z,18.05
2018-03-11T01:52:50.422Z,18.09
2018-03-11T01:53:50.483Z,18.12
2018-03-11T01:54:50.453Z,18.04
2018-03-11T01:55:50.462Z,18.05
2018-03-11T01:56:50.421Z,18.11
2018-03-11T01:57:50.436Z,18.01
2018-03-11T01:58:50.447Z,18.05
2018-03-11T01:59:50.450Z,18.08
2018-03-11T02:00:50.446Z,18.01
2018-03-11T02:01:50.448Z,18.07
2018-03-11T02:02:50.446Z,18.08
2018-03-11T02:03:50.426Z,18.02
2018-03-11T02:04:50.482Z,18.02
2018-03-11T02:05:50.440Z,18.08
2018-03-11T02:06:50.448Z,17.98
2018-03-11T02:07:50.440Z,18.04
2018-03-11T02:08:50.496Z,18.07
2018-03-11T02:09:50.430Z,18
2018-03-11T02:10:50.448Z,18.02
2018-03-11T02:11:50.442Z,18.08
2018-03-11T02:12:50.500Z,17.98
2018-03-11T02:13:50.452Z,18.02
2018-03-11T02:14:50.438Z,18.05
2018-03-11T02:15:50.444Z,17.97
2018-03-11T02:16:50.449Z,18.02
2018-03-11T02:17:50.440Z,18.07
2018-03-11T02:18:50.453Z,17.97
2018-03-11T02:19:50.421Z,18.01
2018-03-11T02:20:50.430Z,18.05
2018-03-11T02:21:50.443Z,17.97
2018-03-11T02:22:50.441Z,18.02
2018-03-11T02:23:50.441Z,18.04
2018-03-11T02:24:50.455Z,17.97
2018-03-11T02:25:50.436Z,18
2018-03-11T02:26:50.506Z,18.04
2018-03-11T02:27:50.434Z,17.94
2018-03-11T02:28:50.416Z,18.01
2018-03-11T02:29:50.414Z,18.02
2018-03-11T02:30:50.743Z,17.97
2018-03-11T02:31:50.481Z,17.95
2018-03-11T02:32:50.444Z,18.02
2018-03-11T02:33:50.444Z,17.93
2018-03-11T02:34:50.485Z,17.97
2018-03-11T02:35:50.506Z,18
2018-03-11T02:36:50.439Z,17.93
2018-03-11T02:37:50.431Z,17.95
2018-03-11T02:38:50.446Z,18.01
2018-03-11T02:39:50.434Z,17.94
2018-03-11T02:40:50.433Z,17.97
2018-03-11T02:41:50.438Z,17.98
2018-03-11T02:42:50.429Z,17.93
2018-03-11T02:43:50.449Z,17.94
2018-03-11T02:44:50.457Z,18
2018-03-11T02:45:50.445Z,17.91
2018-03-11T02:46:50.438Z,17.93
2018-03-11T02:47:50.470Z,17.98
2018-03-11T02:48:50.474Z,17.89
2018-03-11T02:49:50.454Z,17.94
2018-03-11T02:50:50.446Z,17.95
2018-03-11T02:51:50.423Z,17.87
2018-03-11T02:52:50.443Z,17.89
2018-03-11T02:53:50.441Z,17.95
2018-03-11T02:54:50.451Z,17.89
2018-03-11T02:55:50.699Z,17.89
2018-03-11T02:56:50.418Z,17.97
2018-03-11T02:57:50.430Z,17.88
2018-03-11T02:58:50.414Z,17.93
2018-03-11T02:59:50.424Z,17.97
2018-03-11T03:00:50.450Z,17.88
2018-03-11T03:01:50.454Z,17.89
2018-03-11T03:02:50.424Z,17.94
2018-03-11T03:03:50.429Z,17.87
2018-03-11T03:04:50.424Z,17.91
2018-03-11T03:05:50.444Z,17.94
2018-03-11T03:06:50.466Z,17.87
2018-03-11T03:07:50.424Z,17.88
2018-03-11T03:08:50.424Z,17.94
2018-03-11T03:09:50.424Z,17.87
2018-03-11T03:10:50.455Z,17.88
2018-03-11T03:11:50.446Z,17.93
2018-03-11T03:12:50.434Z,17.84
2018-03-11T03:13:50.437Z,17.87
2018-03-11T03:14:50.412Z,17.93
2018-03-11T03:15:50.661Z,17.85
2018-03-11T03:16:50.423Z,17.88
2018-03-11T03:17:50.482Z,17.93
2018-03-11T03:18:50.407Z,17.85
2018-03-11T03:19:50.424Z,17.87
2018-03-11T03:20:50.701Z,17.89
2018-03-11T03:21:50.460Z,17.82
2018-03-11T03:22:50.412Z,17.87
2018-03-11T03:23:50.410Z,17.88
2018-03-11T03:24:50.388Z,17.82
2018-03-11T03:25:50.489Z,17.84
2018-03-11T03:26:50.414Z,17.88
2018-03-11T03:27:50.431Z,17.84
2018-03-11T03:28:50.409Z,17.84
2018-03-11T03:29:50.461Z,17.84
2018-03-11T03:30:50.877Z,17.81
2018-03-11T03:31:50.413Z,17.84
2018-03-11T03:32:50.413Z,17.89
2018-03-11T03:33:50.407Z,17.82
2018-03-11T03:34:50.399Z,17.82
2018-03-11T03:35:50.521Z,17.87
2018-03-11T03:36:50.522Z,17.78
2018-03-11T03:37:50.423Z,17.81
2018-03-11T03:38:50.464Z,17.84
2018-03-11T03:39:50.396Z,17.8
2018-03-11T03:40:50.425Z,17.84
2018-03-11T03:41:50.668Z,17.85
2018-03-11T03:42:50.522Z,17.76
2018-03-11T03:43:50.533Z,17.82
2018-03-11T03:44:50.576Z,17.85
2018-03-11T03:45:50.463Z,17.8
2018-03-11T03:46:50.559Z,17.82
2018-03-11T03:47:50.436Z,17.84
2018-03-11T03:48:50.514Z,17.78
2018-03-11T03:49:50.541Z,17.8
2018-03-11T03:50:50.410Z,17.8
2018-03-11T03:51:50.521Z,17.77
2018-03-11T03:52:50.485Z,17.8
2018-03-11T03:53:50.401Z,17.84
2018-03-11T03:54:50.398Z,17.76
2018-03-11T03:55:50.388Z,17.8
2018-03-11T03:56:50.432Z,17.81
2018-03-11T03:57:50.388Z,17.74
2018-03-11T03:58:50.397Z,17.81
2018-03-11T03:59:50.446Z,17.81
2018-03-11T04:00:50.398Z,17.74
2018-03-11T04:01:50.429Z,17.8
2018-03-11T04:02:50.398Z,17.81
2018-03-11T04:03:50.396Z,17.73
2018-03-11T04:04:50.389Z,17.78
2018-03-11T04:05:50.437Z,17.81
2018-03-11T04:06:50.389Z,17.76
2018-03-11T04:07:50.388Z,17.77
2018-03-11T04:08:50.406Z,17.78
2018-03-11T04:09:50.427Z,17.73
2018-03-11T04:10:50.409Z,17.77
2018-03-11T04:11:50.422Z,17.8
2018-03-11T04:12:50.388Z,17.73
2018-03-11T04:13:50.389Z,17.77
2018-03-11T04:14:50.384Z,17.8
2018-03-11T04:15:50.391Z,17.74
2018-03-11T04:16:50.394Z,17.76
2018-03-11T04:17:50.423Z,17.77
2018-03-11T04:18:50.405Z,17.7
2018-03-11T04:19:50.387Z,17.73
2018-03-11T04:20:50.405Z,17.77
2018-03-11T04:21:50.412Z,17.7
2018-03-11T04:22:50.409Z,17.74
2018-03-11T04:23:50.396Z,17.77
2018-03-11T04:24:50.383Z,17.7
2018-03-11T04:25:50.428Z,17.74
2018-03-11T04:26:50.385Z,17.76
2018-03-11T04:27:50.423Z,17.7
2018-03-11T04:28:50.380Z,17.71
2018-03-11T04:29:50.397Z,17.76
2018-03-11T04:30:50.408Z,17.67
2018-03-11T04:31:50.379Z,17.73
2018-03-11T04:32:50.678Z,17.74
2018-03-11T04:33:50.388Z,17.68
2018-03-11T04:34:50.396Z,17.71
2018-03-11T04:35:50.396Z,17.74
2018-03-11T04:36:50.383Z,17.66
2018-03-11T04:37:50.427Z,17.71
2018-03-11T04:38:50.403Z,17.74
2018-03-11T04:39:50.412Z,17.67
2018-03-11T04:40:50.439Z,17.7
2018-03-11T04:41:50.381Z,17.73
2018-03-11T04:42:50.380Z,17.64
2018-03-11T04:43:50.398Z,17.68
2018-03-11T04:44:50.408Z,17.73
2018-03-11T04:45:50.414Z,17.66
2018-03-11T04:46:50.391Z,17.7
2018-03-11T04:47:50.441Z,17.73
2018-03-11T04:48:50.397Z,17.67
2018-03-11T04:49:50.392Z,17.68
2018-03-11T04:50:50.427Z,17.71
2018-03-11T04:51:50.383Z,17.67
2018-03-11T04:52:50.392Z,17.67
2018-03-11T04:53:50.539Z,17.74
2018-03-11T04:54:50.385Z,17.66
2018-03-11T04:55:50.382Z,17.74
2018-03-11T04:56:50.364Z,17.74
2018-03-11T04:57:50.378Z,17.67
2018-03-11T04:58:50.411Z,17.73
2018-03-11T04:59:50.371Z,17.77
2018-03-11T05:00:50.376Z,17.7
2018-03-11T05:01:50.385Z,17.74
2018-03-11T05:02:50.383Z,17.78
2018-03-11T05:03:50.397Z,17.73
2018-03-11T05:04:50.378Z,17.76
2018-03-11T05:05:50.380Z,17.76
2018-03-11T05:06:50.377Z,17.76
2018-03-11T05:07:50.369Z,17.77
2018-03-11T05:08:50.380Z,17.8
2018-03-11T05:09:50.419Z,17.78
2018-03-11T05:10:50.381Z,17.81
2018-03-11T05:11:50.377Z,17.82
2018-03-11T05:12:50.389Z,17.82
2018-03-11T05:13:50.372Z,17.84
2018-03-11T05:14:50.753Z,17.85
2018-03-11T05:15:50.393Z,17.87
2018-03-11T05:16:50.364Z,17.87
2018-03-11T05:17:50.402Z,17.89
2018-03-11T05:18:50.378Z,17.91
2018-03-11T05:19:50.547Z,17.93
2018-03-11T05:20:50.451Z,17.95
2018-03-11T05:21:50.438Z,18
2018-03-11T05:22:50.382Z,18
2018-03-11T05:23:50.375Z,18.01
2018-03-11T05:24:50.378Z,18.04
2018-03-11T05:25:50.367Z,18.05
2018-03-11T05:26:50.428Z,18.04
2018-03-11T05:27:50.354Z,18.08
2018-03-11T05:28:50.391Z,18.07
2018-03-11T05:29:50.366Z,18.08
2018-03-11T05:30:50.395Z,18.11
2018-03-11T05:31:50.436Z,18.12
2018-03-11T05:32:50.369Z,18.13
2018-03-11T05:33:50.378Z,18.18
2018-03-11T05:34:50.378Z,18.19
2018-03-11T05:35:50.370Z,18.19
2018-03-11T05:36:50.473Z,18.23
2018-03-11T05:37:50.457Z,18.22
2018-03-11T05:38:50.386Z,18.21
2018-03-11T05:39:50.362Z,18.25
2018-03-11T05:40:50.386Z,18.23
2018-03-11T05:41:50.373Z,18.23
2018-03-11T05:42:50.362Z,18.28
2018-03-11T05:43:50.403Z,18.29
2018-03-11T05:44:50.371Z,18.29
2018-03-11T05:45:50.364Z,18.3
2018-03-11T05:46:50.408Z,18.32
2018-03-11T05:47:50.361Z,18.3
2018-03-11T05:48:50.359Z,18.35
2018-03-11T05:49:50.381Z,18.35
2018-03-11T05:50:50.347Z,18.35
2018-03-11T05:51:50.357Z,18.4
2018-03-11T05:52:50.390Z,18.41
2018-03-11T05:53:50.368Z,18.4
2018-03-11T05:54:50.394Z,18.43
2018-03-11T05:55:50.348Z,18.44
2018-03-11T05:56:50.359Z,18.41
2018-03-11T05:57:50.360Z,18.49
2018-03-11T05:58:50.363Z,18.47
2018-03-11T05:59:50.383Z,18.46
2018-03-11T06:00:50.362Z,18.49
2018-03-11T06:01:50.359Z,18.51
2018-03-11T06:02:50.371Z,18.5
2018-03-11T06:03:50.358Z,18.54
2018-03-11T06:04:50.395Z,18.54
2018-03-11T06:05:50.350Z,18.53
2018-03-11T06:06:50.392Z,18.56
2018-03-11T06:07:50.352Z,18.56
2018-03-11T06:08:50.388Z,18.54
2018-03-11T06:09:50.387Z,18.6
2018-03-11T06:10:50.382Z,18.58
2018-03-11T06:11:50.371Z,18.57
2018-03-11T06:12:50.355Z,18.58
2018-03-11T06:13:50.353Z,18.57
2018-03-11T06:14:50.423Z,18.57
2018-03-11T06:15:50.356Z,18.6
2018-03-11T06:16:50.731Z,18.6
2018-03-11T06:17:50.393Z,18.6
2018-03-11T06:18:50.364Z,18.66
2018-03-11T06:19:50.360Z,18.63
2018-03-11T06:20:50.350Z,18.6
2018-03-11T06:21:50.361Z,18.63
2018-03-11T06:22:50.391Z,18.63
2018-03-11T06:23:50.356Z,18.62
2018-03-11T06:24:50.386Z,18.63
2018-03-11T06:25:50.361Z,18.62
2018-03-11T06:26:50.399Z,18.63
2018-03-11T06:27:50.339Z,18.66
2018-03-11T06:28:50.370Z,18.66
2018-03-11T06:29:50.408Z,18.67
2018-03-11T06:30:50.347Z,18.68
2018-03-11T06:31:50.348Z,18.67
2018-03-11T06:32:50.347Z,18.67
2018-03-11T06:33:50.345Z,18.73
2018-03-11T06:34:50.389Z,18.68
2018-03-11T06:35:50.366Z,18.7
2018-03-11T06:36:50.356Z,18.71
2018-03-11T06:37:50.353Z,18.7
2018-03-11T06:38:50.357Z,18.71
2018-03-11T06:39:50.354Z,18.73
2018-03-11T06:40:50.377Z,18.73
2018-03-11T06:41:50.359Z,18.74
2018-03-11T06:42:50.392Z,18.77
2018-03-11T06:43:50.346Z,18.77
2018-03-11T06:44:50.349Z,18.74
2018-03-11T06:45:50.343Z,18.78
2018-03-11T06:46:50.354Z,18.77
2018-03-11T06:47:50.352Z,18.75
2018-03-11T06:48:50.362Z,18.83
2018-03-11T06:49:50.308Z,18.78
2018-03-11T06:50:50.334Z,18.78
2018-03-11T06:51:50.350Z,18.84
2018-03-11T06:52:50.340Z,18.84
2018-03-11T06:53:50.346Z,18.83
2018-03-11T06:54:50.349Z,18.88
2018-03-11T06:55:50.333Z,18.84
2018-03-11T06:56:50.356Z,18.83
2018-03-11T06:57:50.343Z,18.85
2018-03-11T06:58:50.342Z,18.85
2018-03-11T06:59:50.347Z,18.84
2018-03-11T07:00:50.327Z,18.91
2018-03-11T07:01:50.329Z,18.88
2018-03-11T07:02:50.356Z,18.85
2018-03-11T07:03:50.432Z,18.94
2018-03-11T07:04:50.335Z,18.91
2018-03-11T07:05:50.334Z,18.88
2018-03-11T07:06:50.363Z,18.94
2018-03-11T07:07:50.363Z,18.92
2018-03-11T07:08:50.352Z,18.9
2018-03-11T07:09:50.355Z,18.95
2018-03-11T07:10:50.727Z,18.94
2018-03-11T07:11:50.342Z,18.92
2018-03-11T07:12:50.337Z,18.98
2018-03-11T07:13:50.353Z,18.95
2018-03-11T07:14:50.360Z,18.97
2018-03-11T07:15:50.324Z,19.01
2018-03-11T07:16:50.330Z,18.98
2018-03-11T07:17:50.360Z,18.94
2018-03-11T07:18:50.377Z,18.95
2018-03-11T07:19:50.334Z,18.95
2018-03-11T07:20:50.352Z,18.97
2018-03-11T07:21:50.380Z,19.01
2018-03-11T07:22:50.592Z,18.98
2018-03-11T07:23:50.335Z,18.97
2018-03-11T07:24:50.367Z,18.98
2018-03-11T07:25:50.334Z,18.97
2018-03-11T07:26:50.326Z,18.97
2018-03-11T07:27:50.592Z,19.01
2018-03-11T07:28:50.337Z,18.99
2018-03-11T07:29:50.334Z,18.99
2018-03-11T07:30:50.355Z,18.99
2018-03-11T07:31:50.334Z,18.99
2018-03-11T07:32:50.360Z,18.99
2018-03-11T07:33:50.332Z,19.05
2018-03-11T07:34:50.330Z,19.03
2018-03-11T07:35:50.317Z,18.99
2018-03-11T07:36:50.324Z,19.03
2018-03-11T07:37:50.703Z,19.01
2018-03-11T07:38:50.413Z,19.02
2018-03-11T07:39:50.333Z,19.09
2018-03-11T07:40:50.344Z,19.08
2018-03-11T07:41:50.324Z,19.05
2018-03-11T07:42:50.354Z,19.11
2018-03-11T07:43:50.335Z,19.08
2018-03-11T07:44:50.368Z,19.06
2018-03-11T07:45:50.351Z,19.11
2018-03-11T07:46:50.336Z,19.08
2018-03-11T07:47:50.362Z,19.08
2018-03-11T07:48:50.347Z,19.11
2018-03-11T07:49:50.348Z,19.09
2018-03-11T07:50:50.392Z,19.08
2018-03-11T07:51:50.363Z,19.15
2018-03-11T07:52:50.353Z,19.13
2018-03-11T07:53:50.373Z,19.09
2018-03-11T07:54:50.343Z,19.15
2018-03-11T07:55:50.347Z,19.15
2018-03-11T07:56:50.334Z,19.11
2018-03-11T07:57:50.330Z,19.16
2018-03-11T07:58:50.338Z,19.13
2018-03-11T07:59:50.362Z,19.11
2018-03-11T08:00:50.341Z,19.19
2018-03-11T08:01:50.568Z,19.15
2018-03-11T08:02:50.670Z,19.16
2018-03-11T08:03:50.331Z,19.16
2018-03-11T08:04:50.420Z,19.18
2018-03-11T08:05:50.404Z,19.15
2018-03-11T08:06:50.333Z,19.19
2018-03-11T08:07:50.360Z,19.18
2018-03-11T08:08:50.341Z,19.16
2018-03-11T08:09:50.336Z,19.19
2018-03-11T08:10:50.332Z,19.15
2018-03-11T08:11:50.350Z,19.16
2018-03-11T08:12:50.350Z,19.2
2018-03-11T08:13:50.322Z,19.18
2018-03-11T08:14:50.323Z,19.15
2018-03-11T08:15:50.325Z,19.15
2018-03-11T08:16:50.324Z,19.11
2018-03-11T08:17:50.466Z,19.05
2018-03-11T08:18:50.355Z,19.06
2018-03-11T08:19:50.328Z,19.09
2018-03-11T08:20:50.331Z,19.08
2018-03-11T08:21:50.346Z,19.13
2018-03-11T08:22:50.364Z,19.13
2018-03-11T08:23:50.331Z,19.11
2018-03-11T08:24:50.331Z,19.18
2018-03-11T08:25:50.639Z,19.18
2018-03-11T08:26:50.341Z,19.15
2018-03-11T08:27:50.368Z,19.19
2018-03-11T08:28:50.352Z,19.19
2018-03-11T08:29:50.342Z,19.19
2018-03-11T08:30:50.321Z,19.2
2018-03-11T08:31:50.338Z,19.22
2018-03-11T08:32:50.339Z,19.2
2018-03-11T08:33:50.335Z,19.23
2018-03-11T08:34:50.309Z,19.23
2018-03-11T08:35:50.331Z,19.19
2018-03-11T08:36:50.327Z,19.23
2018-03-11T08:37:50.318Z,19.2
2018-03-11T08:38:50.334Z,19.19
2018-03-11T08:39:50.359Z,19.2
2018-03-11T08:40:50.414Z,19.2
2018-03-11T08:41:50.540Z,19.19
2018-03-11T08:42:50.770Z,19.27
2018-03-11T08:43:50.312Z,19.25
2018-03-11T08:44:50.379Z,19.25
2018-03-11T08:45:50.328Z,19.27
2018-03-11T08:46:50.313Z,19.25
2018-03-11T08:47:50.321Z,19.26
2018-03-11T08:48:50.329Z,19.33
2018-03-11T08:49:50.674Z,19.35
2018-03-11T08:50:50.343Z,19.33
2018-03-11T08:51:50.329Z,19.45
2018-03-11T08:52:50.428Z,19.45
2018-03-11T08:53:50.968Z,19.42
2018-03-11T08:54:50.366Z,19.53
2018-03-11T08:55:50.638Z,19.5
2018-03-11T08:56:50.337Z,19.49
2018-03-11T08:57:50.335Z,19.58
2018-03-11T08:58:50.327Z,19.58
2018-03-11T08:59:50.332Z,19.53
2018-03-11T09:00:50.354Z,19.64
2018-03-11T09:01:50.377Z,19.61
2018-03-11T09:02:50.331Z,19.57
2018-03-11T09:03:50.327Z,19.63
2018-03-11T09:04:50.361Z,19.58
2018-03-11T09:05:50.325Z,19.56
2018-03-11T09:06:50.314Z,19.64
2018-03-11T09:07:50.300Z,19.6
2018-03-11T09:08:50.162Z,19.58
2018-03-11T09:09:50.350Z,19.63
2018-03-11T09:10:50.320Z,19.61
2018-03-11T09:11:50.309Z,19.57
2018-03-11T09:12:50.319Z,19.64
2018-03-11T09:13:50.360Z,19.64
2018-03-11T09:14:50.291Z,19.58
2018-03-11T09:15:50.341Z,19.65
2018-03-11T09:16:50.306Z,19.61
2018-03-11T09:17:50.374Z,19.63
2018-03-11T09:18:50.307Z,19.7
2018-03-11T09:19:50.314Z,19.7
2018-03-11T09:20:50.587Z,19.67
2018-03-11T09:21:50.312Z,19.71
2018-03-11T09:22:50.313Z,19.7
2018-03-11T09:23:50.321Z,19.65
2018-03-11T09:24:50.348Z,19.73
2018-03-11T09:25:50.338Z,19.7
2018-03-11T09:26:50.318Z,19.7
2018-03-11T09:27:50.321Z,19.74
2018-03-11T09:28:50.341Z,19.73
2018-03-11T09:29:50.323Z,19.7
2018-03-11T09:30:50.352Z,19.74
2018-03-11T09:31:50.296Z,19.74
2018-03-11T09:32:50.366Z,19.74
2018-03-11T09:33:50.315Z,19.77
2018-03-11T09:34:50.559Z,19.74
2018-03-11T09:35:50.333Z,19.71
2018-03-11T09:36:50.304Z,19.75
2018-03-11T09:37:50.308Z,19.75
2018-03-11T09:38:50.427Z,19.75
2018-03-11T09:39:50.425Z,19.81
2018-03-11T09:40:50.410Z,19.78
2018-03-11T09:41:50.315Z,19.75
2018-03-11T09:42:50.298Z,19.8
2018-03-11T09:43:50.320Z,19.73
2018-03-11T09:44:50.305Z,19.74
2018-03-11T09:45:50.382Z,19.74
2018-03-11T09:46:50.311Z,19.74
2018-03-11T09:47:50.316Z,19.7
2018-03-11T09:48:50.325Z,19.7
2018-03-11T09:49:50.307Z,19.67
2018-03-11T09:50:50.313Z,19.65
2018-03-11T09:51:50.306Z,19.68
2018-03-11T09:52:50.293Z,19.67
2018-03-11T09:53:50.319Z,19.65
2018-03-11T09:54:50.374Z,19.67
2018-03-11T09:55:50.298Z,19.65
2018-03-11T09:56:51.105Z,19.65
2018-03-11T09:57:50.306Z,19.65
2018-03-11T09:58:50.316Z,19.63
2018-03-11T09:59:50.304Z,19.63
2018-03-11T10:00:50.165Z,19.63
2018-03-11T10:01:50.289Z,19.63
2018-03-11T10:02:50.407Z,19.63
2018-03-11T10:03:50.289Z,19.67
2018-03-11T10:04:50.312Z,19.61
2018-03-11T10:05:50.298Z,19.64
2018-03-11T10:06:50.323Z,19.68
2018-03-11T10:07:50.325Z,19.67
2018-03-11T10:08:50.311Z,19.73
2018-03-11T10:09:50.307Z,19.78
2018-03-11T10:10:50.311Z,19.77
2018-03-11T10:11:50.332Z,19.74
2018-03-11T10:12:50.317Z,19.75
2018-03-11T10:13:50.408Z,19.8
2018-03-11T10:14:50.294Z,19.74
2018-03-11T10:15:34.370Z,19.86
2018-03-11T10:16:34.357Z,20.01
2018-03-11T10:17:34.394Z,20.07
2018-03-11T10:18:34.292Z,20.22
2018-03-11T10:19:34.297Z,20.19
2018-03-11T10:20:34.346Z,20.16
2018-03-11T10:21:34.322Z,20.16
2018-03-11T10:22:34.318Z,20.2
2018-03-11T10:23:34.295Z,20.19
2018-03-11T10:24:34.322Z,20.2
2018-03-11T10:25:34.292Z,20.22
2018-03-11T10:26:34.289Z,20.25
2018-03-11T10:27:34.287Z,20.22
2018-03-11T10:28:34.278Z,20.22
2018-03-11T10:29:34.311Z,20.25
2018-03-11T10:30:34.317Z,20.22
2018-03-11T10:31:34.313Z,20.27
2018-03-11T10:32:34.293Z,20.23
2018-03-11T10:33:52.166Z,20.44
2018-03-11T10:33:58.934Z,20.43
2018-03-11T10:34:28.113Z,20.64
2018-03-11T10:35:28.252Z,20.68
2018-03-11T10:36:28.057Z,20.51
2018-03-11T10:37:28.173Z,20.42
2018-03-11T10:38:28.051Z,20.39
2018-03-11T10:39:28.101Z,20.33
2018-03-11T10:40:28.054Z,20.47
2018-03-11T10:41:28.057Z,20.92
2018-03-11T10:42:28.123Z,20.77
2018-03-11T10:43:28.078Z,20.67
2018-03-11T10:44:28.379Z,20.57
2018-03-11T10:45:28.052Z,20.5
2018-03-11T10:46:28.042Z,20.48
2018-03-11T10:47:28.332Z,20.44
2018-03-11T10:48:28.059Z,20.46
2018-03-11T10:49:28.085Z,20.46
2018-03-11T10:50:28.058Z,20.46
2018-03-11T10:51:28.064Z,20.47
2018-03-11T10:52:28.060Z,20.46
2018-03-11T10:53:28.081Z,20.44
2018-03-11T13:46:03.504Z,20.3
2018-03-11T13:46:18.429Z,20.29
2018-03-11T13:47:18.501Z,20.26
2018-03-11T13:57:47.781Z,20.18
2018-03-11T13:58:47.922Z,20.18
2018-03-11T13:59:47.728Z,20.15
2018-03-11T14:00:47.580Z,20.19
2018-03-11T14:01:47.636Z,20.18
2018-03-11T14:02:47.612Z,20.18
2018-03-11T14:03:47.887Z,20.18
2018-03-11T14:04:47.698Z,20.16
2018-03-11T14:05:47.631Z,20.18
2018-03-11T14:06:47.580Z,20.13
2018-03-11T14:07:47.632Z,20.16
2018-03-11T14:08:47.632Z,20.15
2018-03-11T14:09:47.601Z,20.16
2018-03-11T14:10:47.615Z,20.18
2018-03-11T14:11:47.664Z,20.16
2018-03-11T14:12:47.589Z,20.18
2018-03-11T14:13:47.626Z,20.15
2018-03-11T14:14:47.668Z,20.2
2018-03-11T14:15:47.590Z,20.18
2018-03-11T14:16:47.650Z,20.18
2018-03-11T14:17:47.621Z,20.16
2018-03-11T14:18:47.596Z,20.18
2018-03-11T14:19:47.639Z,20.23
2018-03-11T14:20:47.598Z,20.3
2018-03-11T14:21:47.609Z,20.3
2018-03-11T14:22:47.620Z,20.33
2018-03-11T14:23:47.627Z,20.33
2018-03-11T14:24:47.589Z,20.35
2018-03-11T14:25:47.649Z,20.32
2018-03-11T14:26:47.625Z,20.33
2018-03-11T14:27:47.589Z,20.35
2018-03-11T14:28:47.705Z,20.35
2018-03-11T14:29:47.620Z,20.35
2018-03-11T14:30:47.577Z,20.4
2018-03-11T14:31:47.644Z,20.33
2018-03-11T14:32:47.623Z,20.27
2018-03-11T14:33:47.605Z,20.26
2018-03-11T14:34:48.025Z,20.27
2018-03-11T14:35:47.618Z,20.2
2018-03-11T14:36:47.610Z,20.22
2018-03-11T14:37:47.656Z,20.25
2018-03-11T14:38:47.618Z,20.26
2018-03-11T14:39:47.635Z,20.29
2018-03-11T14:40:47.719Z,20.25
2018-03-11T14:41:47.606Z,20.27
2018-03-11T14:42:47.608Z,20.27
2018-03-11T14:43:47.742Z,20.27
2018-03-11T14:44:47.586Z,20.26
2018-03-11T14:45:47.595Z,20.25
2018-03-11T14:46:47.613Z,20.25
2018-03-11T14:47:47.896Z,20.22
2018-03-11T14:48:47.600Z,20.25
2018-03-11T14:49:47.604Z,20.22
2018-03-11T14:50:47.627Z,20.23
2018-03-11T14:51:47.757Z,20.25
2018-03-11T14:52:47.724Z,20.23
2018-03-11T14:53:47.727Z,20.23
2018-03-11T14:54:47.750Z,20.22
2018-03-11T14:55:47.723Z,20.25
2018-03-11T14:56:47.601Z,20.22
2018-03-11T14:57:47.619Z,20.25
2018-03-11T14:58:47.597Z,20.26
2018-03-11T14:59:47.617Z,20.25
2018-03-11T15:00:47.588Z,20.26
2018-03-11T15:01:47.785Z,20.26
2018-03-11T15:02:47.682Z,20.26
2018-03-11T15:03:47.577Z,20.27
2018-03-11T15:04:47.583Z,20.27
2018-03-11T15:05:47.594Z,20.26
2018-03-11T15:06:47.622Z,20.27
2018-03-11T15:07:47.986Z,20.3
2018-03-11T15:08:47.603Z,20.29
2018-03-11T15:09:47.582Z,20.26
2018-03-11T15:10:47.609Z,20.3
2018-03-11T15:11:47.604Z,20.3
2018-03-11T15:12:47.593Z,20.32
2018-03-11T15:13:47.692Z,20.29
2018-03-11T15:14:47.651Z,20.3
2018-03-11T15:15:47.566Z,20.3
2018-03-11T15:16:47.626Z,20.3
2018-03-11T15:17:47.636Z,20.29
2018-03-11T15:18:47.590Z,20.3
2018-03-11T15:19:47.595Z,20.3
2018-03-11T15:20:47.600Z,20.3
2018-03-11T15:21:47.585Z,20.32
2018-03-11T15:22:47.595Z,20.29
2018-03-11T15:23:47.621Z,20.29
2018-03-11T15:24:47.568Z,20.29
2018-03-11T15:25:47.617Z,20.29
2018-03-11T15:26:47.576Z,20.27
2018-03-11T15:27:47.832Z,20.27
2018-03-11T15:28:47.606Z,20.27
2018-03-11T15:29:47.576Z,20.29
2018-03-11T15:30:47.571Z,20.27
2018-03-11T15:31:47.598Z,20.29
2018-03-11T15:32:47.613Z,20.27
2018-03-11T15:33:47.573Z,20.27
2018-03-11T15:34:47.598Z,20.29
2018-03-11T15:35:47.576Z,20.29
2018-03-11T15:36:47.576Z,20.27
2018-03-11T15:37:47.986Z,20.29
2018-03-11T15:38:47.606Z,20.3
2018-03-11T15:39:47.562Z,20.29
2018-03-11T15:40:47.686Z,20.29
2018-03-11T15:41:47.689Z,20.29
2018-03-11T15:42:47.659Z,20.29
2018-03-11T15:43:47.701Z,20.3
2018-03-11T15:44:47.637Z,20.3
2018-03-11T15:45:47.559Z,20.33
2018-03-11T15:46:47.613Z,20.32
2018-03-11T15:47:47.610Z,20.33
2018-03-11T15:48:47.558Z,20.33
2018-03-11T15:49:47.584Z,20.35
2018-03-11T15:50:47.606Z,20.33
2018-03-11T15:51:47.540Z,20.36
2018-03-11T15:52:47.632Z,20.35
2018-03-11T15:53:47.689Z,20.36
2018-03-11T15:54:47.573Z,20.36